Irini — SYZA — position and weather

sailwx.info

Track history (hours):
 
Tides and Currents Weather Stations Pressure Air Temp Water Temp Dewpoint Dewpoint Depression Visibility Wind Speed Wind Dir Waves Ship Positions

Irini

Last reported at 2015-Aug-01 23:20 UTC. Time now 2015-Aug-03 23:17 UTC.
Position N 37°54' E 024°33'.

Length 137 m; draft 7.2 m.

Type: Ship (hazmat cat A). MMSI: 240052000.

Date/timePositionNaut miles runAvg speedWind from/ knotsBaromVisibWave heightAir tempDewpointWater temp
2015-Aug-01 23:20N 37°54' E 024°33'2910.4
2015-Aug-01 20:33N 37°36' E 024°03'1110.8
2015-Aug-01 19:34N 37°38' E 023°50'1010.0
2015-Aug-01 18:33N 37°44' E 023°40'1110.8
2015-Aug-01 17:33N 37°55' E 023°36'7 7.1
2015-Aug-01 16:33N 38°01' E 023°32'1 1.2
2015-Aug-01 15:24N 38°02' E 023°31'0 0.0
2015-Aug-01 14:24N 38°02' E 023°31'0 0.0
2015-Aug-01 13:24N 38°02' E 023°31'0 0.0
2015-Aug-01 12:30N 38°02' E 023°31'0 0.0
2015-Aug-01 11:30N 38°02' E 023°31'0 0.0
2015-Aug-01 10:30N 38°02' E 023°31'0 0.0
2015-Aug-01 09:30N 38°02' E 023°31'0 0.0
2015-Aug-01 08:24N 38°02' E 023°31'0 0.0
2015-Aug-01 07:33N 38°02' E 023°31'0 0.0
2015-Aug-01 06:30N 38°02' E 023°31'0 0.0
2015-Aug-01 05:33N 38°02' E 023°31'0 0.0
2015-Aug-01 04:33N 38°02' E 023°31'0 0.0
2015-Aug-01 03:24N 38°02' E 023°31'0 0.0
2015-Aug-01 02:33N 38°02' E 023°31'0 0.0
2015-Aug-01 01:33N 38°02' E 023°31'0 0.0
2015-Aug-01 00:27N 38°02' E 023°31'0 0.0
2015-Jul-31 23:33N 38°02' E 023°31'0 0.0
2015-Jul-31 22:33N 38°02' E 023°31'0 0.0
2015-Jul-31 21:33N 38°02' E 023°31'0 0.0
2015-Jul-31 20:33N 38°02' E 023°31'0 0.0
2015-Jul-31 19:30N 38°02' E 023°31'0 0.0
2015-Jul-31 18:33N 38°02' E 023°31'0 0.0
2015-Jul-31 17:33N 38°02' E 023°31'0 0.0
2015-Jul-31 16:33N 38°02' E 023°31'0 0.0
2015-Jul-31 15:33N 38°02' E 023°31'0 0.0
2015-Jul-31 14:34N 38°02' E 023°31'1 0.8
2015-Jul-31 13:31N 38°02' E 023°31'0 0.0
2015-Jul-31 12:31N 38°02' E 023°32'0 0.0
2015-Jul-31 11:28N 38°02' E 023°32'0 0.0
2015-Jul-31 10:31N 38°02' E 023°32'0 0.0
2015-Jul-31 09:31N 38°02' E 023°32'0 0.1
2015-Jul-31 08:30N 38°02' E 023°32'3 0.1
2015-Jul-30 11:16N 38°02' E 023°36'3 4.8
2015-Jul-30 10:33N 37°59' E 023°33'6 5.6
2015-Jul-30 09:33N 37°54' E 023°37'1110.9
2015-Jul-30 08:33N 37°44' E 023°43'1110.5
2015-Jul-30 07:33N 37°37' E 023°53'51 9.6
2015-Jul-30 02:14N 38°17' E 024°33'1012.3
2015-Jul-30 01:24N 38°26' E 024°27'  
2015-Jul-27 20:24N 37°49' E 024°25'2111.4
2015-Jul-27 18:33N 37°36' E 024°03'1111.3
2015-Jul-27 17:34N 37°38' E 023°49'1010.2
2015-Jul-27 16:34N 37°45' E 023°40'1010.4
2015-Jul-27 15:33N 37°54' E 023°34'1 0.8
2015-Jul-27 14:33N 37°55' E 023°33'0 0.1
2015-Jul-27 13:33N 37°55' E 023°33'0 0.0
2015-Jul-27 12:33N 37°55' E 023°33'0 0.0
2015-Jul-27 11:33N 37°55' E 023°33'0 0.0
2015-Jul-27 10:33N 37°55' E 023°33'0 0.1
2015-Jul-27 09:33N 37°55' E 023°33'0 0.2
2015-Jul-27 08:33N 37°55' E 023°33'0 0.5
2015-Jul-27 07:33N 37°54' E 023°33'3 3.3
2015-Jul-27 06:33N 37°58' E 023°33'4 4.2
2015-Jul-27 05:33N 38°02' E 023°31'1 0.6
2015-Jul-27 04:28N 38°02' E 023°31'0 0.0
2015-Jul-27 03:31N 38°02' E 023°31'0 0.0
2015-Jul-27 02:31N 38°02' E 023°31'0 0.0
2015-Jul-27 01:31N 38°02' E 023°31'0 0.0
2015-Jul-27 00:31N 38°02' E 023°31'0 0.0
2015-Jul-26 23:31N 38°02' E 023°31'0 0.0
2015-Jul-26 22:31N 38°02' E 023°31'0 0.0
2015-Jul-26 21:31N 38°02' E 023°31'0 0.0
2015-Jul-26 20:31N 38°02' E 023°31'0 0.0
2015-Jul-26 19:31N 38°02' E 023°31'0 0.0
2015-Jul-26 18:31N 38°02' E 023°31'0 0.0
2015-Jul-26 17:31N 38°02' E 023°31'0 0.0
2015-Jul-26 16:31N 38°02' E 023°31'0 0.0
2015-Jul-26 15:31N 38°02' E 023°31'0 0.0
2015-Jul-26 14:28N 38°02' E 023°31'0 0.0
2015-Jul-26 13:31N 38°02' E 023°31'0 0.0
2015-Jul-26 12:25N 38°02' E 023°31'0 0.0
2015-Jul-26 11:31N 38°02' E 023°31'0 0.0
2015-Jul-26 10:28N 38°02' E 023°31'0 0.0
2015-Jul-26 09:28N 38°02' E 023°31'0 0.0
2015-Jul-26 08:19N 38°02' E 023°31'0 0.0
2015-Jul-26 07:31N 38°02' E 023°31'0 0.0
2015-Jul-26 06:31N 38°02' E 023°31'0 0.0
2015-Jul-26 05:31N 38°02' E 023°31'0 0.0
2015-Jul-26 04:28N 38°02' E 023°31'0 0.0
2015-Jul-26 03:31N 38°02' E 023°31'0 0.0
2015-Jul-26 02:31N 38°02' E 023°31'0 0.0
2015-Jul-26 01:28N 38°02' E 023°31'0 0.0
2015-Jul-26 00:25N 38°02' E 023°31'0 0.0
2015-Jul-25 23:31N 38°02' E 023°31'0 0.0
2015-Jul-25 22:31N 38°02' E 023°31'0 0.0
2015-Jul-25 21:31N 38°02' E 023°31'0 0.0
2015-Jul-25 20:25N 38°02' E 023°31'0 0.0
2015-Jul-25 19:31N 38°02' E 023°31'0 0.0
2015-Jul-25 18:31N 38°02' E 023°31'0 0.0
2015-Jul-25 17:31N 38°02' E 023°31'0 0.0
2015-Jul-25 16:28N 38°02' E 023°31'0 0.0
2015-Jul-25 15:31N 38°02' E 023°31'0 0.0
2015-Jul-25 14:25N 38°02' E 023°31'0 0.0
2015-Jul-25 13:25N 38°02' E 023°31'0 0.0
2015-Jul-25 12:28N 38°02' E 023°31'0 0.0
2015-Jul-25 11:31N 38°02' E 023°31'0 0.0
2015-Jul-25 10:31N 38°02' E 023°31'0 0.0
2015-Jul-25 09:32N 38°02' E 023°31'4 4.3
2015-Jul-25 08:34N 37°58' E 023°33'7 7.0
2015-Jul-25 07:33N 37°52' E 023°38'1211.6
2015-Jul-25 06:33N 37°42' E 023°44'1111.5
2015-Jul-25 05:33N 37°37' E 023°57'50 9.4
2015-Jul-25 00:18N 38°17' E 024°33'1011.8
2015-Jul-24 23:26N 38°26' E 024°27'  
Track history (hours):
 
Tides and Currents Weather Stations Pressure Air Temp Water Temp Dewpoint Dewpoint Depression Visibility Wind Speed Wind Dir Waves Ship Positions

Irini

Last reported at 2015-Aug-01 23:20 UTC. Time now 2015-Aug-03 23:17 UTC.
Position N 37°54' E 024°33'.

Length 137 m; draft 7.2 m.

Type: Ship (hazmat cat A). MMSI: 240052000.

Date/timePositionNaut miles runAvg speedWind from/ knotsBaromVisibWave heightAir tempDewpointWater temp
2015-Aug-01 23:20N 37°54' E 024°33'2910.4
2015-Aug-01 20:33N 37°36' E 024°03'1110.8
2015-Aug-01 19:34N 37°38' E 023°50'1010.0
2015-Aug-01 18:33N 37°44' E 023°40'1110.8
2015-Aug-01 17:33N 37°55' E 023°36'7 7.1
2015-Aug-01 16:33N 38°01' E 023°32'1 1.2
2015-Aug-01 15:24N 38°02' E 023°31'0 0.0
2015-Aug-01 14:24N 38°02' E 023°31'0 0.0
2015-Aug-01 13:24N 38°02' E 023°31'0 0.0
2015-Aug-01 12:30N 38°02' E 023°31'0 0.0
2015-Aug-01 11:30N 38°02' E 023°31'0 0.0
2015-Aug-01 10:30N 38°02' E 023°31'0 0.0
2015-Aug-01 09:30N 38°02' E 023°31'0 0.0
2015-Aug-01 08:24N 38°02' E 023°31'0 0.0
2015-Aug-01 07:33N 38°02' E 023°31'0 0.0
2015-Aug-01 06:30N 38°02' E 023°31'0 0.0
2015-Aug-01 05:33N 38°02' E 023°31'0 0.0
2015-Aug-01 04:33N 38°02' E 023°31'0 0.0
2015-Aug-01 03:24N 38°02' E 023°31'0 0.0
2015-Aug-01 02:33N 38°02' E 023°31'0 0.0
2015-Aug-01 01:33N 38°02' E 023°31'0 0.0
2015-Aug-01 00:27N 38°02' E 023°31'0 0.0
2015-Jul-31 23:33N 38°02' E 023°31'0 0.0
2015-Jul-31 22:33N 38°02' E 023°31'0 0.0
2015-Jul-31 21:33N 38°02' E 023°31'0 0.0
2015-Jul-31 20:33N 38°02' E 023°31'0 0.0
2015-Jul-31 19:30N 38°02' E 023°31'0 0.0
2015-Jul-31 18:33N 38°02' E 023°31'0 0.0
2015-Jul-31 17:33N 38°02' E 023°31'0 0.0
2015-Jul-31 16:33N 38°02' E 023°31'0 0.0
2015-Jul-31 15:33N 38°02' E 023°31'0 0.0
2015-Jul-31 14:34N 38°02' E 023°31'1 0.8
2015-Jul-31 13:31N 38°02' E 023°31'0 0.0
2015-Jul-31 12:31N 38°02' E 023°32'0 0.0
2015-Jul-31 11:28N 38°02' E 023°32'0 0.0
2015-Jul-31 10:31N 38°02' E 023°32'0 0.0
2015-Jul-31 09:31N 38°02' E 023°32'0 0.1
2015-Jul-31 08:30N 38°02' E 023°32'3 0.1
2015-Jul-30 11:16N 38°02' E 023°36'3 4.8
2015-Jul-30 10:33N 37°59' E 023°33'6 5.6
2015-Jul-30 09:33N 37°54' E 023°37'1110.9
2015-Jul-30 08:33N 37°44' E 023°43'1110.5
2015-Jul-30 07:33N 37°37' E 023°53'51 9.6
2015-Jul-30 02:14N 38°17' E 024°33'1012.3
2015-Jul-30 01:24N 38°26' E 024°27'  
2015-Jul-27 20:24N 37°49' E 024°25'2111.4
2015-Jul-27 18:33N 37°36' E 024°03'1111.3
2015-Jul-27 17:34N 37°38' E 023°49'1010.2
2015-Jul-27 16:34N 37°45' E 023°40'1010.4
2015-Jul-27 15:33N 37°54' E 023°34'1 0.8
2015-Jul-27 14:33N 37°55' E 023°33'0 0.1
2015-Jul-27 13:33N 37°55' E 023°33'0 0.0
2015-Jul-27 12:33N 37°55' E 023°33'0 0.0
2015-Jul-27 11:33N 37°55' E 023°33'0 0.0
2015-Jul-27 10:33N 37°55' E 023°33'0 0.1
2015-Jul-27 09:33N 37°55' E 023°33'0 0.2
2015-Jul-27 08:33N 37°55' E 023°33'0 0.5
2015-Jul-27 07:33N 37°54' E 023°33'3 3.3
2015-Jul-27 06:33N 37°58' E 023°33'4 4.2
2015-Jul-27 05:33N 38°02' E 023°31'1 0.6
2015-Jul-27 04:28N 38°02' E 023°31'0 0.0
2015-Jul-27 03:31N 38°02' E 023°31'0 0.0
2015-Jul-27 02:31N 38°02' E 023°31'0 0.0
2015-Jul-27 01:31N 38°02' E 023°31'0 0.0
2015-Jul-27 00:31N 38°02' E 023°31'0 0.0
2015-Jul-26 23:31N 38°02' E 023°31'0 0.0
2015-Jul-26 22:31N 38°02' E 023°31'0 0.0
2015-Jul-26 21:31N 38°02' E 023°31'0 0.0
2015-Jul-26 20:31N 38°02' E 023°31'0 0.0
2015-Jul-26 19:31N 38°02' E 023°31'0 0.0
2015-Jul-26 18:31N 38°02' E 023°31'0 0.0
2015-Jul-26 17:31N 38°02' E 023°31'0 0.0
2015-Jul-26 16:31N 38°02' E 023°31'0 0.0
2015-Jul-26 15:31N 38°02' E 023°31'0 0.0
2015-Jul-26 14:28N 38°02' E 023°31'0 0.0
2015-Jul-26 13:31N 38°02' E 023°31'0 0.0
2015-Jul-26 12:25N 38°02' E 023°31'0 0.0
2015-Jul-26 11:31N 38°02' E 023°31'0 0.0
2015-Jul-26 10:28N 38°02' E 023°31'0 0.0
2015-Jul-26 09:28N 38°02' E 023°31'0 0.0
2015-Jul-26 08:19N 38°02' E 023°31'0 0.0
2015-Jul-26 07:31N 38°02' E 023°31'0 0.0
2015-Jul-26 06:31N 38°02' E 023°31'0 0.0
2015-Jul-26 05:31N 38°02' E 023°31'0 0.0
2015-Jul-26 04:28N 38°02' E 023°31'0 0.0
2015-Jul-26 03:31N 38°02' E 023°31'0 0.0
2015-Jul-26 02:31N 38°02' E 023°31'0 0.0
2015-Jul-26 01:28N 38°02' E 023°31'0 0.0
2015-Jul-26 00:25N 38°02' E 023°31'0 0.0
2015-Jul-25 23:31N 38°02' E 023°31'0 0.0
2015-Jul-25 22:31N 38°02' E 023°31'0 0.0
2015-Jul-25 21:31N 38°02' E 023°31'0 0.0
2015-Jul-25 20:25N 38°02' E 023°31'0 0.0
2015-Jul-25 19:31N 38°02' E 023°31'0 0.0
2015-Jul-25 18:31N 38°02' E 023°31'0 0.0
2015-Jul-25 17:31N 38°02' E 023°31'0 0.0
2015-Jul-25 16:28N 38°02' E 023°31'0 0.0
2015-Jul-25 15:31N 38°02' E 023°31'0 0.0
2015-Jul-25 14:25N 38°02' E 023°31'0 0.0
2015-Jul-25 13:25N 38°02' E 023°31'0 0.0
2015-Jul-25 12:28N 38°02' E 023°31'0 0.0
2015-Jul-25 11:31N 38°02' E 023°31'0 0.0
2015-Jul-25 10:31N 38°02' E 023°31'0 0.0
2015-Jul-25 09:32N 38°02' E 023°31'4 4.3
2015-Jul-25 08:34N 37°58' E 023°33'7 7.0
2015-Jul-25 07:33N 37°52' E 023°38'1211.6
2015-Jul-25 06:33N 37°42' E 023°44'1111.5
2015-Jul-25 05:33N 37°37' E 023°57'50 9.4
2015-Jul-25 00:18N 38°17' E 024°33'1011.8
2015-Jul-24 23:26N 38°26' E 024°27'  

Dump ship's entire track history